sensor_id;sensor_type;location;lat;lon;timestamp;P1;durP1;ratioP1;P2;durP2;ratioP2
23670;SDS011;12012;51.998;7.614;2023-11-18T00:02:17;56.90;;;22.88;;
23670;SDS011;12012;51.998;7.614;2023-11-18T00:04:43;62.38;;;24.55;;
23670;SDS011;12012;51.998;7.614;2023-11-18T00:07:08;47.13;;;22.55;;
23670;SDS011;12012;51.998;7.614;2023-11-18T00:09:34;76.65;;;26.63;;
23670;SDS011;12012;51.998;7.614;2023-11-18T00:12:00;66.32;;;27.25;;
23670;SDS011;12012;51.998;7.614;2023-11-18T00:14:26;42.67;;;22.55;;
23670;SDS011;12012;51.998;7.614;2023-11-18T00:16:51;47.13;;;23.63;;
23670;SDS011;12012;51.998;7.614;2023-11-18T00:19:17;103.75;;;28.80;;
23670;SDS011;12012;51.998;7.614;2023-11-18T00:21:43;109.25;;;29.15;;
23670;SDS011;12012;51.998;7.614;2023-11-18T00:24:09;102.47;;;26.67;;
23670;SDS011;12012;51.998;7.614;2023-11-18T00:26:34;53.13;;;26.02;;
23670;SDS011;12012;51.998;7.614;2023-11-18T00:29:00;70.20;;;27.88;;
23670;SDS011;12012;51.998;7.614;2023-11-18T00:31:25;50.67;;;26.10;;
23670;SDS011;12012;51.998;7.614;2023-11-18T00:33:52;47.25;;;23.73;;
23670;SDS011;12012;51.998;7.614;2023-11-18T00:36:18;129.20;;;30.50;;
23670;SDS011;12012;51.998;7.614;2023-11-18T00:38:43;64.53;;;25.23;;
23670;SDS011;12012;51.998;7.614;2023-11-18T00:41:09;49.70;;;23.23;;
23670;SDS011;12012;51.998;7.614;2023-11-18T00:43:35;64.10;;;23.20;;
23670;SDS011;12012;51.998;7.614;2023-11-18T00:46:01;78.18;;;28.88;;
23670;SDS011;12012;51.998;7.614;2023-11-18T00:48:28;60.78;;;25.63;;
23670;SDS011;12012;51.998;7.614;2023-11-18T00:50:55;54.08;;;22.75;;
23670;SDS011;12012;51.998;7.614;2023-11-18T00:53:21;53.70;;;27.33;;
23670;SDS011;12012;51.998;7.614;2023-11-18T00:55:47;51.88;;;22.98;;
23670;SDS011;12012;51.998;7.614;2023-11-18T00:58:12;55.90;;;24.15;;
23670;SDS011;12012;51.998;7.614;2023-11-18T01:00:38;49.75;;;24.33;;
23670;SDS011;12012;51.998;7.614;2023-11-18T01:03:04;46.83;;;21.70;;
23670;SDS011;12012;51.998;7.614;2023-11-18T01:05:29;87.20;;;27.33;;
23670;SDS011;12012;51.998;7.614;2023-11-18T01:07:56;58.65;;;25.25;;
23670;SDS011;12012;51.998;7.614;2023-11-18T01:10:22;39.47;;;20.65;;
23670;SDS011;12012;51.998;7.614;2023-11-18T01:12:48;81.30;;;32.75;;
23670;SDS011;12012;51.998;7.614;2023-11-18T01:15:13;62.65;;;26.90;;
23670;SDS011;12012;51.998;7.614;2023-11-18T01:17:39;55.22;;;24.50;;
23670;SDS011;12012;51.998;7.614;2023-11-18T01:20:05;59.05;;;28.90;;
23670;SDS011;12012;51.998;7.614;2023-11-18T01:22:35;48.77;;;22.10;;
23670;SDS011;12012;51.998;7.614;2023-11-18T01:25:05;55.97;;;26.95;;
23670;SDS011;12012;51.998;7.614;2023-11-18T01:27:33;46.95;;;21.52;;
23670;SDS011;12012;51.998;7.614;2023-11-18T01:29:59;74.35;;;32.15;;
23670;SDS011;12012;51.998;7.614;2023-11-18T01:32:25;52.92;;;25.02;;
23670;SDS011;12012;51.998;7.614;2023-11-18T01:34:51;55.40;;;27.45;;
23670;SDS011;12012;51.998;7.614;2023-11-18T01:37:18;70.40;;;26.92;;
23670;SDS011;12012;51.998;7.614;2023-11-18T01:39:46;59.40;;;25.20;;
23670;SDS011;12012;51.998;7.614;2023-11-18T01:42:12;56.85;;;25.17;;
23670;SDS011;12012;51.998;7.614;2023-11-18T01:44:37;61.00;;;27.23;;
23670;SDS011;12012;51.998;7.614;2023-11-18T01:47:03;65.90;;;26.00;;
23670;SDS011;12012;51.998;7.614;2023-11-18T01:49:35;74.55;;;28.17;;
23670;SDS011;12012;51.998;7.614;2023-11-18T01:52:05;63.08;;;27.45;;
23670;SDS011;12012;51.998;7.614;2023-11-18T01:54:32;82.57;;;32.55;;
23670;SDS011;12012;51.998;7.614;2023-11-18T01:56:59;70.50;;;28.75;;
23670;SDS011;12012;51.998;7.614;2023-11-18T01:59:30;140.98;;;33.40;;
23670;SDS011;12012;51.998;7.614;2023-11-18T02:01:58;140.27;;;34.63;;
23670;SDS011;12012;51.998;7.614;2023-11-18T02:04:25;78.68;;;27.08;;
23670;SDS011;12012;51.998;7.614;2023-11-18T02:06:51;67.15;;;29.38;;
23670;SDS011;12012;51.998;7.614;2023-11-18T02:09:17;82.30;;;34.33;;
23670;SDS011;12012;51.998;7.614;2023-11-18T02:14:17;111.25;;;35.15;;
23670;SDS011;12012;51.998;7.614;2023-11-18T02:16:45;89.15;;;34.63;;
23670;SDS011;12012;51.998;7.614;2023-11-18T02:19:22;54.13;;;25.75;;
23670;SDS011;12012;51.998;7.614;2023-11-18T02:21:49;101.55;;;33.88;;
23670;SDS011;12012;51.998;7.614;2023-11-18T02:24:28;73.32;;;29.55;;
23670;SDS011;12012;51.998;7.614;2023-11-18T02:26:59;82.72;;;30.23;;
23670;SDS011;12012;51.998;7.614;2023-11-18T02:29:26;59.28;;;28.55;;
23670;SDS011;12012;51.998;7.614;2023-11-18T02:32:03;46.78;;;25.65;;
23670;SDS011;12012;51.998;7.614;2023-11-18T02:34:44;69.95;;;27.17;;
23670;SDS011;12012;51.998;7.614;2023-11-18T02:37:16;66.85;;;27.55;;
23670;SDS011;12012;51.998;7.614;2023-11-18T02:39:43;45.05;;;22.90;;
23670;SDS011;12012;51.998;7.614;2023-11-18T02:42:10;56.40;;;26.30;;
23670;SDS011;12012;51.998;7.614;2023-11-18T02:44:37;43.40;;;24.27;;
23670;SDS011;12012;51.998;7.614;2023-11-18T02:47:04;167.57;;;29.95;;
23670;SDS011;12012;51.998;7.614;2023-11-18T02:49:30;108.88;;;28.10;;
23670;SDS011;12012;51.998;7.614;2023-11-18T02:51:57;51.72;;;23.38;;
23670;SDS011;12012;51.998;7.614;2023-11-18T02:54:22;54.95;;;24.48;;
23670;SDS011;12012;51.998;7.614;2023-11-18T02:56:48;33.15;;;20.00;;
23670;SDS011;12012;51.998;7.614;2023-11-18T02:59:15;57.38;;;27.85;;
23670;SDS011;12012;51.998;7.614;2023-11-18T03:01:41;53.63;;;27.67;;
23670;SDS011;12012;51.998;7.614;2023-11-18T03:04:07;57.70;;;26.95;;
23670;SDS011;12012;51.998;7.614;2023-11-18T03:06:33;48.28;;;25.10;;
23670;SDS011;12012;51.998;7.614;2023-11-18T03:09:00;49.40;;;24.58;;
23670;SDS011;12012;51.998;7.614;2023-11-18T03:11:26;44.63;;;22.15;;
23670;SDS011;12012;51.998;7.614;2023-11-18T03:13:55;46.17;;;25.10;;
23670;SDS011;12012;51.998;7.614;2023-11-18T03:16:22;41.03;;;23.50;;
23670;SDS011;12012;51.998;7.614;2023-11-18T03:18:49;46.20;;;25.35;;
23670;SDS011;12012;51.998;7.614;2023-11-18T03:21:15;43.85;;;24.25;;
23670;SDS011;12012;51.998;7.614;2023-11-18T03:23:41;37.65;;;22.65;;
23670;SDS011;12012;51.998;7.614;2023-11-18T03:26:07;34.85;;;22.10;;
23670;SDS011;12012;51.998;7.614;2023-11-18T03:28:36;41.47;;;23.50;;
23670;SDS011;12012;51.998;7.614;2023-11-18T03:31:06;38.95;;;21.65;;
23670;SDS011;12012;51.998;7.614;2023-11-18T03:33:32;44.47;;;24.05;;
23670;SDS011;12012;51.998;7.614;2023-11-18T03:35:57;39.00;;;23.30;;
23670;SDS011;12012;51.998;7.614;2023-11-18T03:38:23;38.50;;;22.83;;
23670;SDS011;12012;51.998;7.614;2023-11-18T03:40:49;44.28;;;24.98;;
23670;SDS011;12012;51.998;7.614;2023-11-18T03:43:17;42.88;;;24.23;;
23670;SDS011;12012;51.998;7.614;2023-11-18T03:45:43;47.03;;;26.40;;
23670;SDS011;12012;51.998;7.614;2023-11-18T03:48:09;47.83;;;27.40;;
23670;SDS011;12012;51.998;7.614;2023-11-18T03:50:39;41.13;;;24.00;;
23670;SDS011;12012;51.998;7.614;2023-11-18T03:53:05;45.22;;;25.65;;
23670;SDS011;12012;51.998;7.614;2023-11-18T03:55:31;47.53;;;25.25;;
23670;SDS011;12012;51.998;7.614;2023-11-18T03:57:58;46.03;;;26.73;;
23670;SDS011;12012;51.998;7.614;2023-11-18T04:00:24;44.72;;;25.65;;
23670;SDS011;12012;51.998;7.614;2023-11-18T04:02:57;44.60;;;24.08;;
23670;SDS011;12012;51.998;7.614;2023-11-18T04:05:23;41.75;;;22.55;;
23670;SDS011;12012;51.998;7.614;2023-11-18T04:07:48;37.17;;;21.45;;
23670;SDS011;12012;51.998;7.614;2023-11-18T04:10:14;43.42;;;23.48;;
23670;SDS011;12012;51.998;7.614;2023-11-18T04:12:40;45.55;;;25.17;;
23670;SDS011;12012;51.998;7.614;2023-11-18T04:15:06;39.58;;;22.80;;
23670;SDS011;12012;51.998;7.614;2023-11-18T04:17:32;38.30;;;21.52;;
23670;SDS011;12012;51.998;7.614;2023-11-18T04:19:58;45.35;;;25.77;;
23670;SDS011;12012;51.998;7.614;2023-11-18T04:22:24;41.58;;;23.52;;
23670;SDS011;12012;51.998;7.614;2023-11-18T04:24:49;45.45;;;26.25;;
23670;SDS011;12012;51.998;7.614;2023-11-18T04:27:15;36.65;;;21.17;;
23670;SDS011;12012;51.998;7.614;2023-11-18T04:29:41;35.53;;;19.48;;
23670;SDS011;12012;51.998;7.614;2023-11-18T04:32:07;45.90;;;25.00;;
23670;SDS011;12012;51.998;7.614;2023-11-18T04:34:38;45.63;;;25.80;;
23670;SDS011;12012;51.998;7.614;2023-11-18T04:37:04;38.25;;;22.02;;
23670;SDS011;12012;51.998;7.614;2023-11-18T04:39:33;34.60;;;21.00;;
23670;SDS011;12012;51.998;7.614;2023-11-18T04:41:59;41.92;;;24.33;;
23670;SDS011;12012;51.998;7.614;2023-11-18T04:44:26;46.72;;;26.08;;
23670;SDS011;12012;51.998;7.614;2023-11-18T04:46:52;34.22;;;20.52;;
23670;SDS011;12012;51.998;7.614;2023-11-18T04:49:17;42.92;;;23.70;;
23670;SDS011;12012;51.998;7.614;2023-11-18T04:51:44;34.03;;;20.40;;
23670;SDS011;12012;51.998;7.614;2023-11-18T04:54:10;46.70;;;23.33;;
23670;SDS011;12012;51.998;7.614;2023-11-18T04:56:36;42.35;;;23.30;;
23670;SDS011;12012;51.998;7.614;2023-11-18T04:59:04;38.83;;;21.33;;
23670;SDS011;12012;51.998;7.614;2023-11-18T05:01:30;43.65;;;23.83;;
23670;SDS011;12012;51.998;7.614;2023-11-18T05:03:59;44.85;;;25.15;;
23670;SDS011;12012;51.998;7.614;2023-11-18T05:06:25;43.80;;;24.10;;
23670;SDS011;12012;51.998;7.614;2023-11-18T05:08:51;43.78;;;24.40;;
23670;SDS011;12012;51.998;7.614;2023-11-18T05:11:17;36.22;;;20.92;;
23670;SDS011;12012;51.998;7.614;2023-11-18T05:13:43;35.05;;;19.10;;
23670;SDS011;12012;51.998;7.614;2023-11-18T05:16:08;35.67;;;19.02;;
23670;SDS011;12012;51.998;7.614;2023-11-18T05:18:35;34.72;;;19.75;;
23670;SDS011;12012;51.998;7.614;2023-11-18T05:21:02;33.83;;;19.75;;
23670;SDS011;12012;51.998;7.614;2023-11-18T05:23:30;37.60;;;20.73;;
23670;SDS011;12012;51.998;7.614;2023-11-18T05:25:56;36.15;;;21.25;;
23670;SDS011;12012;51.998;7.614;2023-11-18T05:28:23;41.88;;;24.10;;
23670;SDS011;12012;51.998;7.614;2023-11-18T05:30:49;36.55;;;21.10;;
23670;SDS011;12012;51.998;7.614;2023-11-18T05:33:15;39.30;;;21.52;;
23670;SDS011;12012;51.998;7.614;2023-11-18T05:35:45;37.53;;;21.75;;
23670;SDS011;12012;51.998;7.614;2023-11-18T05:38:15;44.10;;;22.92;;
23670;SDS011;12012;51.998;7.614;2023-11-18T05:40:43;38.67;;;21.63;;
23670;SDS011;12012;51.998;7.614;2023-11-18T05:43:19;47.17;;;22.52;;
23670;SDS011;12012;51.998;7.614;2023-11-18T05:45:46;39.20;;;20.88;;
23670;SDS011;12012;51.998;7.614;2023-11-18T05:48:31;33.00;;;19.83;;
23670;SDS011;12012;51.998;7.614;2023-11-18T05:50:57;38.08;;;21.38;;
23670;SDS011;12012;51.998;7.614;2023-11-18T05:53:22;38.30;;;22.10;;
23670;SDS011;12012;51.998;7.614;2023-11-18T05:55:48;35.22;;;19.40;;
23670;SDS011;12012;51.998;7.614;2023-11-18T05:58:17;39.72;;;23.58;;
23670;SDS011;12012;51.998;7.614;2023-11-18T06:00:43;38.15;;;22.20;;
23670;SDS011;12012;51.998;7.614;2023-11-18T06:03:09;46.58;;;24.25;;
23670;SDS011;12012;51.998;7.614;2023-11-18T06:05:36;37.08;;;20.60;;
23670;SDS011;12012;51.998;7.614;2023-11-18T06:08:02;38.67;;;20.70;;
23670;SDS011;12012;51.998;7.614;2023-11-18T06:10:29;36.45;;;21.05;;
23670;SDS011;12012;51.998;7.614;2023-11-18T06:12:57;37.05;;;20.55;;
23670;SDS011;12012;51.998;7.614;2023-11-18T06:15:23;41.28;;;23.92;;
23670;SDS011;12012;51.998;7.614;2023-11-18T06:17:49;40.70;;;21.92;;
23670;SDS011;12012;51.998;7.614;2023-11-18T06:20:14;36.03;;;20.27;;
23670;SDS011;12012;51.998;7.614;2023-11-18T06:22:42;30.23;;;18.27;;
23670;SDS011;12012;51.998;7.614;2023-11-18T06:25:07;42.42;;;23.02;;
23670;SDS011;12012;51.998;7.614;2023-11-18T06:27:33;38.67;;;22.38;;
23670;SDS011;12012;51.998;7.614;2023-11-18T06:29:59;31.08;;;19.67;;
23670;SDS011;12012;51.998;7.614;2023-11-18T06:32:25;37.67;;;21.10;;
23670;SDS011;12012;51.998;7.614;2023-11-18T06:34:51;40.58;;;20.92;;
23670;SDS011;12012;51.998;7.614;2023-11-18T06:37:18;36.85;;;19.92;;
23670;SDS011;12012;51.998;7.614;2023-11-18T06:39:44;38.97;;;21.58;;
23670;SDS011;12012;51.998;7.614;2023-11-18T06:42:12;39.10;;;21.67;;
23670;SDS011;12012;51.998;7.614;2023-11-18T06:44:39;36.65;;;20.80;;
23670;SDS011;12012;51.998;7.614;2023-11-18T06:47:05;34.67;;;19.00;;
23670;SDS011;12012;51.998;7.614;2023-11-18T06:49:31;28.42;;;17.27;;
23670;SDS011;12012;51.998;7.614;2023-11-18T06:52:01;44.25;;;24.48;;
23670;SDS011;12012;51.998;7.614;2023-11-18T06:54:28;41.35;;;23.52;;
23670;SDS011;12012;51.998;7.614;2023-11-18T06:56:54;33.72;;;19.55;;
23670;SDS011;12012;51.998;7.614;2023-11-18T06:59:20;32.38;;;19.05;;
23670;SDS011;12012;51.998;7.614;2023-11-18T07:01:45;35.03;;;20.65;;
23670;SDS011;12012;51.998;7.614;2023-11-18T07:04:11;39.03;;;21.55;;
23670;SDS011;12012;51.998;7.614;2023-11-18T07:06:37;34.78;;;20.75;;
23670;SDS011;12012;51.998;7.614;2023-11-18T07:09:03;37.88;;;19.60;;
23670;SDS011;12012;51.998;7.614;2023-11-18T07:11:37;33.90;;;19.77;;
23670;SDS011;12012;51.998;7.614;2023-11-18T07:14:03;35.90;;;20.05;;
23670;SDS011;12012;51.998;7.614;2023-11-18T07:16:28;33.67;;;18.88;;
23670;SDS011;12012;51.998;7.614;2023-11-18T07:18:54;32.47;;;19.00;;
23670;SDS011;12012;51.998;7.614;2023-11-18T07:21:19;33.00;;;19.42;;
23670;SDS011;12012;51.998;7.614;2023-11-18T07:23:45;33.70;;;19.95;;
23670;SDS011;12012;51.998;7.614;2023-11-18T07:26:11;33.53;;;19.20;;
23670;SDS011;12012;51.998;7.614;2023-11-18T07:28:38;31.92;;;19.30;;
23670;SDS011;12012;51.998;7.614;2023-11-18T07:31:04;34.10;;;17.65;;
23670;SDS011;12012;51.998;7.614;2023-11-18T07:33:30;32.75;;;19.23;;
23670;SDS011;12012;51.998;7.614;2023-11-18T07:35:57;32.70;;;20.67;;
23670;SDS011;12012;51.998;7.614;2023-11-18T07:38:23;38.55;;;21.58;;
23670;SDS011;12012;51.998;7.614;2023-11-18T07:40:49;28.17;;;16.38;;
23670;SDS011;12012;51.998;7.614;2023-11-18T07:43:17;35.55;;;20.30;;
23670;SDS011;12012;51.998;7.614;2023-11-18T07:45:46;32.50;;;18.88;;
23670;SDS011;12012;51.998;7.614;2023-11-18T07:48:14;33.95;;;18.42;;
23670;SDS011;12012;51.998;7.614;2023-11-18T07:50:42;38.22;;;20.90;;
23670;SDS011;12012;51.998;7.614;2023-11-18T07:53:14;31.77;;;18.05;;
23670;SDS011;12012;51.998;7.614;2023-11-18T07:55:40;27.92;;;17.25;;
23670;SDS011;12012;51.998;7.614;2023-11-18T07:58:06;25.75;;;15.95;;
23670;SDS011;12012;51.998;7.614;2023-11-18T08:00:38;33.83;;;18.95;;
23670;SDS011;12012;51.998;7.614;2023-11-18T08:03:08;28.13;;;17.05;;
23670;SDS011;12012;51.998;7.614;2023-11-18T08:08:04;27.42;;;16.38;;
23670;SDS011;12012;51.998;7.614;2023-11-18T08:10:33;29.80;;;17.85;;
23670;SDS011;12012;51.998;7.614;2023-11-18T08:13:02;28.08;;;17.38;;
23670;SDS011;12012;51.998;7.614;2023-11-18T08:15:33;38.95;;;20.33;;
23670;SDS011;12012;51.998;7.614;2023-11-18T08:17:59;30.33;;;17.77;;
23670;SDS011;12012;51.998;7.614;2023-11-18T08:20:25;30.75;;;19.17;;
23670;SDS011;12012;51.998;7.614;2023-11-18T08:22:51;37.17;;;20.30;;
23670;SDS011;12012;51.998;7.614;2023-11-18T08:25:16;29.70;;;17.77;;
23670;SDS011;12012;51.998;7.614;2023-11-18T08:27:42;29.08;;;18.23;;
23670;SDS011;12012;51.998;7.614;2023-11-18T08:30:11;32.97;;;18.42;;
23670;SDS011;12012;51.998;7.614;2023-11-18T08:32:38;25.20;;;15.32;;
23670;SDS011;12012;51.998;7.614;2023-11-18T08:35:06;32.20;;;19.42;;
23670;SDS011;12012;51.998;7.614;2023-11-18T08:37:33;30.23;;;18.85;;
23670;SDS011;12012;51.998;7.614;2023-11-18T08:40:05;30.95;;;18.08;;
23670;SDS011;12012;51.998;7.614;2023-11-18T08:42:39;30.42;;;18.90;;
23670;SDS011;12012;51.998;7.614;2023-11-18T08:45:18;31.38;;;18.38;;
23670;SDS011;12012;51.998;7.614;2023-11-18T08:47:52;29.08;;;17.08;;
23670;SDS011;12012;51.998;7.614;2023-11-18T08:50:18;32.42;;;18.83;;
23670;SDS011;12012;51.998;7.614;2023-11-18T08:52:44;28.23;;;17.23;;
23670;SDS011;12012;51.998;7.614;2023-11-18T08:55:14;29.65;;;18.52;;
23670;SDS011;12012;51.998;7.614;2023-11-18T08:57:45;23.40;;;15.68;;
23670;SDS011;12012;51.998;7.614;2023-11-18T09:00:23;28.13;;;15.75;;
23670;SDS011;12012;51.998;7.614;2023-11-18T09:03:08;29.70;;;16.90;;
23670;SDS011;12012;51.998;7.614;2023-11-18T09:05:35;26.52;;;16.27;;
23670;SDS011;12012;51.998;7.614;2023-11-18T09:08:01;24.33;;;15.50;;
23670;SDS011;12012;51.998;7.614;2023-11-18T09:10:31;27.55;;;17.48;;
23670;SDS011;12012;51.998;7.614;2023-11-18T09:12:57;29.30;;;18.63;;
23670;SDS011;12012;51.998;7.614;2023-11-18T09:15:23;25.88;;;16.67;;
23670;SDS011;12012;51.998;7.614;2023-11-18T09:17:49;30.70;;;16.42;;
23670;SDS011;12012;51.998;7.614;2023-11-18T09:20:14;32.28;;;19.33;;
23670;SDS011;12012;51.998;7.614;2023-11-18T09:22:45;28.40;;;16.48;;
23670;SDS011;12012;51.998;7.614;2023-11-18T09:25:11;24.92;;;16.13;;
23670;SDS011;12012;51.998;7.614;2023-11-18T09:27:36;27.60;;;16.90;;
23670;SDS011;12012;51.998;7.614;2023-11-18T09:30:04;24.63;;;15.48;;
23670;SDS011;12012;51.998;7.614;2023-11-18T09:32:38;27.23;;;16.85;;
23670;SDS011;12012;51.998;7.614;2023-11-18T09:35:08;26.63;;;16.70;;
23670;SDS011;12012;51.998;7.614;2023-11-18T09:37:38;28.92;;;18.00;;
23670;SDS011;12012;51.998;7.614;2023-11-18T09:40:05;35.15;;;21.40;;
23670;SDS011;12012;51.998;7.614;2023-11-18T09:42:41;27.13;;;17.52;;
23670;SDS011;12012;51.998;7.614;2023-11-18T09:45:09;35.83;;;19.35;;
23670;SDS011;12012;51.998;7.614;2023-11-18T09:47:45;29.02;;;16.60;;
23670;SDS011;12012;51.998;7.614;2023-11-18T09:50:17;33.75;;;20.73;;
23670;SDS011;12012;51.998;7.614;2023-11-18T09:52:49;27.42;;;17.35;;
23670;SDS011;12012;51.998;7.614;2023-11-18T09:55:33;25.50;;;16.75;;
23670;SDS011;12012;51.998;7.614;2023-11-18T09:58:08;28.27;;;17.10;;
23670;SDS011;12012;51.998;7.614;2023-11-18T10:00:39;30.40;;;19.15;;
23670;SDS011;12012;51.998;7.614;2023-11-18T10:03:07;29.98;;;18.67;;
23670;SDS011;12012;51.998;7.614;2023-11-18T10:05:35;29.88;;;18.30;;
23670;SDS011;12012;51.998;7.614;2023-11-18T10:08:02;27.45;;;18.27;;
23670;SDS011;12012;51.998;7.614;2023-11-18T10:10:30;26.85;;;16.02;;
23670;SDS011;12012;51.998;7.614;2023-11-18T10:13:03;27.92;;;17.45;;
23670;SDS011;12012;51.998;7.614;2023-11-18T10:15:33;33.95;;;21.48;;
23670;SDS011;12012;51.998;7.614;2023-11-18T10:17:59;34.08;;;21.02;;
23670;SDS011;12012;51.998;7.614;2023-11-18T10:20:47;29.23;;;18.13;;
23670;SDS011;12012;51.998;7.614;2023-11-18T10:23:16;34.10;;;21.88;;
23670;SDS011;12012;51.998;7.614;2023-11-18T10:25:46;27.80;;;16.48;;
23670;SDS011;12012;51.998;7.614;2023-11-18T10:31:01;26.80;;;17.77;;
23670;SDS011;12012;51.998;7.614;2023-11-18T10:33:29;24.05;;;16.05;;
23670;SDS011;12012;51.998;7.614;2023-11-18T10:35:56;27.27;;;17.15;;
23670;SDS011;12012;51.998;7.614;2023-11-18T10:38:22;27.13;;;18.23;;
23670;SDS011;12012;51.998;7.614;2023-11-18T10:40:54;28.17;;;20.42;;
23670;SDS011;12012;51.998;7.614;2023-11-18T10:43:22;25.33;;;16.13;;
23670;SDS011;12012;51.998;7.614;2023-11-18T10:48:42;25.52;;;16.00;;
23670;SDS011;12012;51.998;7.614;2023-11-18T10:51:16;33.65;;;21.20;;
23670;SDS011;12012;51.998;7.614;2023-11-18T10:53:49;23.90;;;15.20;;
23670;SDS011;12012;51.998;7.614;2023-11-18T10:56:23;24.20;;;16.13;;
23670;SDS011;12012;51.998;7.614;2023-11-18T10:59:05;28.92;;;17.15;;
23670;SDS011;12012;51.998;7.614;2023-11-18T11:01:33;27.83;;;17.70;;
23670;SDS011;12012;51.998;7.614;2023-11-18T11:04:04;24.25;;;16.80;;
23670;SDS011;12012;51.998;7.614;2023-11-18T11:06:31;27.02;;;17.48;;
23670;SDS011;12012;51.998;7.614;2023-11-18T11:08:58;28.20;;;18.33;;
23670;SDS011;12012;51.998;7.614;2023-11-18T11:11:24;25.33;;;17.58;;
23670;SDS011;12012;51.998;7.614;2023-11-18T11:13:57;28.80;;;19.55;;
23670;SDS011;12012;51.998;7.614;2023-11-18T11:16:39;29.73;;;18.77;;
23670;SDS011;12012;51.998;7.614;2023-11-18T11:19:13;31.88;;;20.02;;
23670;SDS011;12012;51.998;7.614;2023-11-18T11:21:50;26.50;;;17.83;;
23670;SDS011;12012;51.998;7.614;2023-11-18T11:24:26;33.67;;;19.83;;
23670;SDS011;12012;51.998;7.614;2023-11-18T11:29:52;28.92;;;18.70;;
23670;SDS011;12012;51.998;7.614;2023-11-18T11:32:25;24.83;;;16.20;;
23670;SDS011;12012;51.998;7.614;2023-11-18T11:34:56;25.90;;;15.82;;
23670;SDS011;12012;51.998;7.614;2023-11-18T11:37:32;22.95;;;14.73;;
23670;SDS011;12012;51.998;7.614;2023-11-18T11:40:01;18.98;;;12.98;;
23670;SDS011;12012;51.998;7.614;2023-11-18T11:42:34;24.42;;;16.15;;
23670;SDS011;12012;51.998;7.614;2023-11-18T11:45:01;23.05;;;15.00;;
23670;SDS011;12012;51.998;7.614;2023-11-18T11:47:27;21.45;;;14.55;;
23670;SDS011;12012;51.998;7.614;2023-11-18T11:50:11;17.65;;;12.65;;
23670;SDS011;12012;51.998;7.614;2023-11-18T11:52:47;23.38;;;13.90;;
23670;SDS011;12012;51.998;7.614;2023-11-18T11:55:23;23.00;;;15.93;;
23670;SDS011;12012;51.998;7.614;2023-11-18T11:57:57;28.10;;;17.67;;
23670;SDS011;12012;51.998;7.614;2023-11-18T12:00:23;20.55;;;14.75;;
23670;SDS011;12012;51.998;7.614;2023-11-18T12:02:51;19.15;;;12.82;;
23670;SDS011;12012;51.998;7.614;2023-11-18T12:05:24;23.02;;;15.30;;
23670;SDS011;12012;51.998;7.614;2023-11-18T12:07:54;20.33;;;13.70;;
23670;SDS011;12012;51.998;7.614;2023-11-18T12:10:20;23.65;;;14.57;;
23670;SDS011;12012;51.998;7.614;2023-11-18T12:12:46;23.70;;;14.38;;
23670;SDS011;12012;51.998;7.614;2023-11-18T12:15:13;20.05;;;14.05;;
23670;SDS011;12012;51.998;7.614;2023-11-18T12:18:28;17.20;;;11.90;;
23670;SDS011;12012;51.998;7.614;2023-11-18T12:20:39;18.63;;;12.73;;
23670;SDS011;12012;51.998;7.614;2023-11-18T12:23:20;22.98;;;14.50;;
23670;SDS011;12012;51.998;7.614;2023-11-18T12:25:52;19.42;;;13.20;;
23670;SDS011;12012;51.998;7.614;2023-11-18T12:28:19;21.38;;;13.68;;
23670;SDS011;12012;51.998;7.614;2023-11-18T12:30:52;18.10;;;11.80;;
23670;SDS011;12012;51.998;7.614;2023-11-18T12:33:21;17.38;;;11.63;;
23670;SDS011;12012;51.998;7.614;2023-11-18T12:39:14;18.77;;;12.80;;
23670;SDS011;12012;51.998;7.614;2023-11-18T12:42:02;19.08;;;12.45;;
23670;SDS011;12012;51.998;7.614;2023-11-18T12:44:35;20.60;;;13.32;;
23670;SDS011;12012;51.998;7.614;2023-11-18T12:47:04;20.00;;;12.75;;
23670;SDS011;12012;51.998;7.614;2023-11-18T12:49:42;22.80;;;14.52;;
23670;SDS011;12012;51.998;7.614;2023-11-18T12:52:09;22.25;;;13.57;;
23670;SDS011;12012;51.998;7.614;2023-11-18T12:54:39;22.40;;;12.07;;
23670;SDS011;12012;51.998;7.614;2023-11-18T12:57:09;20.60;;;13.13;;
23670;SDS011;12012;51.998;7.614;2023-11-18T12:59:38;19.70;;;11.48;;
23670;SDS011;12012;51.998;7.614;2023-11-18T13:02:08;22.33;;;14.30;;
23670;SDS011;12012;51.998;7.614;2023-11-18T13:04:38;24.90;;;12.73;;
23670;SDS011;12012;51.998;7.614;2023-11-18T13:07:05;20.25;;;12.43;;
23670;SDS011;12012;51.998;7.614;2023-11-18T13:09:33;19.63;;;12.98;;
23670;SDS011;12012;51.998;7.614;2023-11-18T13:12:01;19.75;;;12.45;;
23670;SDS011;12012;51.998;7.614;2023-11-18T13:14:33;18.98;;;12.68;;
23670;SDS011;12012;51.998;7.614;2023-11-18T13:17:05;25.13;;;14.38;;
23670;SDS011;12012;51.998;7.614;2023-11-18T13:19:36;19.88;;;12.23;;
23670;SDS011;12012;51.998;7.614;2023-11-18T13:22:02;22.30;;;12.52;;
23670;SDS011;12012;51.998;7.614;2023-11-18T13:24:32;19.52;;;12.15;;
23670;SDS011;12012;51.998;7.614;2023-11-18T13:26:58;20.10;;;12.07;;
23670;SDS011;12012;51.998;7.614;2023-11-18T13:29:32;28.27;;;15.20;;
23670;SDS011;12012;51.998;7.614;2023-11-18T13:31:59;23.05;;;12.82;;
23670;SDS011;12012;51.998;7.614;2023-11-18T13:34:28;18.23;;;12.43;;
23670;SDS011;12012;51.998;7.614;2023-11-18T13:36:57;24.38;;;14.65;;
23670;SDS011;12012;51.998;7.614;2023-11-18T13:39:23;21.42;;;13.38;;
23670;SDS011;12012;51.998;7.614;2023-11-18T13:41:52;28.40;;;16.30;;
23670;SDS011;12012;51.998;7.614;2023-11-18T13:44:36;26.00;;;14.77;;
23670;SDS011;12012;51.998;7.614;2023-11-18T13:47:06;18.95;;;11.95;;
23670;SDS011;12012;51.998;7.614;2023-11-18T13:49:32;33.00;;;17.85;;
23670;SDS011;12012;51.998;7.614;2023-11-18T13:52:02;26.10;;;17.00;;
23670;SDS011;12012;51.998;7.614;2023-11-18T13:54:28;26.85;;;15.80;;
23670;SDS011;12012;51.998;7.614;2023-11-18T13:56:54;26.63;;;14.80;;
23670;SDS011;12012;51.998;7.614;2023-11-18T13:59:24;26.25;;;16.73;;
23670;SDS011;12012;51.998;7.614;2023-11-18T14:01:51;23.55;;;14.50;;
23670;SDS011;12012;51.998;7.614;2023-11-18T14:04:27;25.67;;;15.35;;
23670;SDS011;12012;51.998;7.614;2023-11-18T14:07:01;27.20;;;15.52;;
23670;SDS011;12012;51.998;7.614;2023-11-18T14:09:30;23.63;;;13.50;;
23670;SDS011;12012;51.998;7.614;2023-11-18T14:12:00;24.52;;;15.85;;
23670;SDS011;12012;51.998;7.614;2023-11-18T14:14:27;27.02;;;17.02;;
23670;SDS011;12012;51.998;7.614;2023-11-18T14:16:53;23.67;;;14.82;;
23670;SDS011;12012;51.998;7.614;2023-11-18T14:19:22;25.27;;;14.20;;
23670;SDS011;12012;51.998;7.614;2023-11-18T14:21:50;24.45;;;15.48;;
23670;SDS011;12012;51.998;7.614;2023-11-18T14:24:19;25.25;;;15.45;;
23670;SDS011;12012;51.998;7.614;2023-11-18T14:26:48;25.60;;;15.27;;
23670;SDS011;12012;51.998;7.614;2023-11-18T14:29:13;27.45;;;15.88;;
23670;SDS011;12012;51.998;7.614;2023-11-18T14:31:39;27.13;;;16.05;;
23670;SDS011;12012;51.998;7.614;2023-11-18T14:34:05;24.30;;;14.50;;
23670;SDS011;12012;51.998;7.614;2023-11-18T14:36:30;30.92;;;16.00;;
23670;SDS011;12012;51.998;7.614;2023-11-18T14:38:56;28.92;;;16.00;;
23670;SDS011;12012;51.998;7.614;2023-11-18T14:41:25;34.55;;;18.83;;
23670;SDS011;12012;51.998;7.614;2023-11-18T14:43:54;62.95;;;31.25;;
23670;SDS011;12012;51.998;7.614;2023-11-18T14:46:20;38.67;;;20.02;;